Time;durP1;ratioP1;P1;durP2;ratioP2;P2;SDS_P1;SDS_P2;PMS_P1;PMS_P2;Temp;Humidity;BMP_temperature;BMP_pressure;BME280_temperature;BME280_humidity;BME280_pressure;Samples;Min_cycle;Max_cycle;Signal;HPM_P1;HPM_P2
2023/08/10 00:01:59;;;;;;;4.18;2.15;;;;;;;19.72;100.00;100788.97;5071980;28;20045;-76
2023/08/10 00:04:24;;;;;;;2.30;1.50;;;;;;;19.72;100.00;100836.25;5075900;28;20040;-76
2023/08/10 00:06:50;;;;;;;2.40;1.60;;;;;;;19.49;100.00;100835.75;5057210;28;20025;-75
2023/08/10 00:09:15;;;;;;;4.70;1.80;;;;;;;19.27;100.00;100792.16;5075240;28;20025;-76
2023/08/10 00:11:41;;;;;;;4.10;1.45;;;;;;;19.70;100.00;100826.91;5075392;28;20025;-76
2023/08/10 00:14:07;;;;;;;3.25;1.48;;;;;;;19.85;100.00;100814.03;5075308;28;20104;-72
2023/08/10 00:16:33;;;;;;;5.20;1.50;;;;;;;19.70;100.00;100812.28;5074737;28;20064;-74
2023/08/10 00:19:00;;;;;;;2.85;1.80;;;;;;;19.38;100.00;100750.34;5074818;28;20032;-75
2023/08/10 00:21:26;;;;;;;4.90;1.80;;;;;;;19.55;100.00;100813.03;5074942;28;20024;-75
2023/08/10 00:23:52;;;;;;;2.22;1.60;;;;;;;19.34;100.00;100741.94;5074881;28;20035;-76
2023/08/10 00:26:17;;;;;;;2.85;1.70;;;;;;;19.65;100.00;100809.09;5074911;28;20036;-76
2023/08/10 00:28:43;;;;;;;3.40;1.75;;;;;;;19.68;100.00;100829.59;5075353;28;20031;-76
2023/08/10 00:31:08;;;;;;;2.60;1.70;;;;;;;19.23;100.00;100784.63;5074536;28;20046;-72
2023/08/10 00:33:34;;;;;;;4.20;1.95;;;;;;;19.55;100.00;100815.63;5074989;28;20028;-75
2023/08/10 00:36:06;;;;;;;3.90;2.05;;;;;;;19.49;100.00;100815.94;5074336;28;20036;-76
2023/08/10 00:38:32;;;;;;;3.83;1.90;;;;;;;19.46;100.00;100812.69;5056996;28;20547;-76
2023/08/10 00:40:57;;;;;;;7.13;2.33;;;;;;;19.72;100.00;100822.50;5075117;28;20119;-75
2023/08/10 00:43:24;;;;;;;4.93;1.90;;;;;;;19.56;100.00;100821.63;5074835;28;20051;-76
2023/08/10 00:45:51;;;;;;;2.63;1.88;;;;;;;19.31;100.00;100767.03;5074632;28;20047;-76
2023/08/10 00:48:17;;;;;;;4.43;2.10;;;;;;;19.16;100.00;100747.16;5074964;28;20025;-77
2023/08/10 00:50:43;;;;;;;4.40;2.38;;;;;;;19.04;100.00;100752.03;5073863;28;20501;-76
2023/08/10 00:53:08;;;;;;;3.95;2.50;;;;;;;19.50;100.00;100819.38;5074514;28;20041;-76
2023/08/10 00:55:34;;;;;;;2.95;2.20;;;;;;;18.80;100.00;100708.59;5074317;28;20051;-75
2023/08/10 00:58:00;;;;;;;4.47;2.13;;;;;;;19.13;100.00;100771.38;5074366;28;20344;-76
2023/08/10 01:00:27;;;;;;;3.47;1.60;;;;;;;19.21;100.00;100820.81;5073969;28;20066;-75
2023/08/10 01:02:53;;;;;;;2.60;1.80;;;;;;;19.21;100.00;100828.56;5056756;28;20514;-75
2023/08/10 01:05:18;;;;;;;3.17;1.50;;;;;;;19.23;100.00;100831.03;5074443;28;20029;-75
2023/08/10 01:07:52;;;;;;;3.58;1.90;;;;;;;19.14;100.00;100842.63;5074034;28;20033;-76
2023/08/10 01:10:26;;;;;;;2.70;1.63;;;;;;;19.03;100.00;100865.53;5073663;28;20024;-76
2023/08/10 01:13:15;;;;;;;2.20;1.60;;;;;;;18.89;100.00;100873.94;5055787;28;20036;-75
2023/08/10 01:15:48;;;;;;;2.40;1.80;;;;;;;19.08;100.00;100861.00;5072486;28;20090;-75
2023/08/10 01:18:18;;;;;;;2.67;1.98;;;;;;;18.93;100.00;100839.38;5073686;28;20115;-74
2023/08/10 01:20:47;;;;;;;4.03;1.92;;;;;;;18.83;100.00;100856.19;5073793;28;20025;-75
2023/08/10 01:23:15;;;;;;;2.75;1.98;;;;;;;18.97;100.00;100858.09;5073457;28;20116;-74
2023/08/10 01:25:42;;;;;;;3.25;1.98;;;;;;;18.19;100.00;100816.28;5073197;28;20525;-76
2023/08/10 01:28:09;;;;;;;3.33;2.20;;;;;;;18.83;100.00;100871.66;5073673;28;20099;-76
2023/08/10 01:30:35;;;;;;;2.60;2.00;;;;;;;18.54;100.00;100818.06;5073626;28;20032;-75
2023/08/10 01:33:00;;;;;;;5.32;2.40;;;;;;;18.03;100.00;100774.13;5073269;28;20032;-76
2023/08/10 01:35:25;;;;;;;3.22;2.22;;;;;;;18.61;100.00;100891.59;5073486;28;20029;-77
2023/08/10 01:37:51;;;;;;;5.25;2.42;;;;;;;18.52;100.00;100806.19;5073212;28;20029;-73
2023/08/10 01:40:17;;;;;;;2.83;2.10;;;;;;;19.17;100.00;100880.34;5055219;28;20024;-76
2023/08/10 01:42:43;;;;;;;3.58;2.45;;;;;;;18.98;100.00;100870.91;5073805;28;20024;-76
2023/08/10 01:45:09;;;;;;;3.85;2.40;;;;;;;18.59;100.00;100818.72;5073632;28;20036;-76
2023/08/10 01:47:49;;;;;;;3.70;2.20;;;;;;;18.73;100.00;100887.63;5073630;28;20395;-76
2023/08/10 01:50:18;;;;;;;6.35;2.97;;;;;;;18.46;100.00;100834.81;5073149;28;20025;-75
2023/08/10 01:52:53;;;;;;;5.55;2.60;;;;;;;18.99;100.00;100848.56;5073430;28;20028;-77
2023/08/10 01:55:20;;;;;;;7.20;3.47;;;;;;;19.37;100.00;100903.44;5073332;28;20037;-76
2023/08/10 01:57:46;;;;;;;48.40;28.08;;;;;;;18.95;100.00;100826.41;5073839;28;20029;-76
2023/08/10 02:00:12;;;;;;;67.95;41.28;;;;;;;18.65;100.00;100826.16;5073366;28;20411;-76
2023/08/10 02:02:38;;;;;;;46.92;29.65;;;;;;;19.17;100.00;100875.19;5073427;28;20025;-76
2023/08/10 02:05:05;;;;;;;39.17;25.55;;;;;;;18.67;100.00;100802.88;5072927;28;20479;-74
2023/08/10 02:07:31;;;;;;;27.55;16.75;;;;;;;18.85;100.00;100861.28;5072950;28;20043;-76
2023/08/10 02:09:57;;;;;;;22.98;12.80;;;;;;;18.79;100.00;100867.56;5072613;28;20029;-76
2023/08/10 02:12:23;;;;;;;23.08;11.85;;;;;;;18.50;100.00;100820.88;5072922;28;20032;-77
2023/08/10 02:14:49;;;;;;;20.02;11.73;;;;;;;18.83;100.00;100881.97;5073125;28;20505;-77
2023/08/10 02:17:15;;;;;;;16.00;10.15;;;;;;;18.16;100.00;100821.59;5073268;28;20058;-76
2023/08/10 02:19:41;;;;;;;16.85;9.30;;;;;;;18.62;100.00;100908.72;5072631;28;20029;-76
2023/08/10 02:22:06;;;;;;;14.23;9.38;;;;;;;18.49;100.00;100901.63;5073155;28;20438;-76
2023/08/10 02:24:31;;;;;;;14.60;7.32;;;;;;;18.52;100.00;100922.09;5072837;28;20051;-76
2023/08/10 02:26:57;;;;;;;11.85;7.45;;;;;;;18.29;100.00;100822.69;5072921;28;20402;-76
2023/08/10 02:29:23;;;;;;;11.57;6.40;;;;;;;18.81;100.00;100931.91;5072759;28;20472;-76
2023/08/10 02:31:48;;;;;;;10.07;6.28;;;;;;;18.44;100.00;100862.38;5073095;28;20025;-76
2023/08/10 02:34:14;;;;;;;16.70;9.57;;;;;;;18.85;100.00;100952.31;5054672;28;20487;-74
2023/08/10 02:36:39;;;;;;;20.35;12.10;;;;;;;18.46;100.00;100871.69;5072841;28;20028;-77
2023/08/10 02:39:05;;;;;;;15.77;8.85;;;;;;;18.40;100.00;100879.66;5072874;28;20032;-76
2023/08/10 02:41:31;;;;;;;15.55;9.38;;;;;;;18.03;100.00;100859.06;5072955;28;20483;-76
2023/08/10 02:43:57;;;;;;;16.02;8.52;;;;;;;18.44;100.00;100909.56;5072355;28;20032;-76
2023/08/10 02:46:22;;;;;;;12.45;7.50;;;;;;;18.70;100.00;100968.47;5082682;28;20058;-76
2023/08/10 02:48:48;;;;;;;13.10;7.18;;;;;;;18.61;100.00;100968.03;5094467;28;20024;-73
2023/08/10 02:51:13;;;;;;;13.60;6.90;;;;;;;18.13;100.00;100906.66;5074935;28;20044;-77
2023/08/10 02:53:38;;;;;;;12.38;7.35;;;;;;;18.44;100.00;100962.81;5072582;28;20415;-77
2023/08/10 02:56:04;;;;;;;13.48;7.30;;;;;;;17.79;100.00;100858.38;5073588;28;20029;-77
2023/08/10 02:58:30;;;;;;;13.65;7.40;;;;;;;18.65;100.00;100978.16;5073508;28;20111;-76
2023/08/10 03:00:55;;;;;;;11.07;6.97;;;;;;;18.13;100.00;100911.78;5073295;28;20135;-77
2023/08/10 03:03:21;;;;;;;9.75;5.32;;;;;;;18.64;100.00;100926.69;5072844;28;20024;-76
2023/08/10 03:05:46;;;;;;;6.22;3.80;;;;;;;18.88;100.00;100979.66;5072758;28;20028;-77
2023/08/10 03:08:12;;;;;;;6.85;3.28;;;;;;;18.95;100.00;100981.91;5054801;28;20035;-77
2023/08/10 03:10:37;;;;;;;3.92;2.30;;;;;;;18.59;100.00;100937.22;5071992;28;20082;-77
2023/08/10 03:13:04;;;;;;;3.05;2.00;;;;;;;18.40;100.00;100938.88;5072771;28;20031;-77
2023/08/10 03:15:30;;;;;;;3.15;2.03;;;;;;;18.36;100.00;100945.06;5072449;28;20025;-78
2023/08/10 03:17:56;;;;;;;3.35;2.20;;;;;;;18.90;100.00;101017.34;5071860;28;20081;-78
2023/08/10 03:20:21;;;;;;;2.58;1.95;;;;;;;18.65;100.00;100991.03;5071788;28;20041;-77
2023/08/10 03:22:47;;;;;;;3.17;2.03;;;;;;;18.76;100.00;100996.53;5071596;28;20028;-76
2023/08/10 03:25:14;;;;;;;5.40;2.15;;;;;;;19.37;100.00;101050.47;5054346;28;20120;-77
2023/08/10 03:27:40;;;;;;;3.25;1.80;;;;;;;18.58;100.00;100945.81;5071939;28;20051;-77
2023/08/10 03:30:06;;;;;;;12.18;4.97;;;;;;;19.33;100.00;101049.75;5071477;28;20476;-76
2023/08/10 03:32:32;;;;;;;24.83;13.48;;;;;;;18.94;100.00;101007.72;5071900;28;20029;-77
2023/08/10 03:34:57;;;;;;;27.67;15.23;;;;;;;18.22;100.00;101035.00;5072647;28;20058;-77
2023/08/10 03:37:23;;;;;;;32.45;16.02;;;;;;;18.05;100.00;100961.03;5072834;28;20119;-76
2023/08/10 03:39:48;;;;;;;32.38;17.38;;;;;;;18.05;100.00;100965.34;5076042;28;20043;-77
2023/08/10 03:42:14;;;;;;;32.97;14.43;;;;;;;18.49;100.00;101020.94;5076210;28;20031;-76
2023/08/10 03:44:39;;;;;;;20.60;11.07;;;;;;;18.30;100.00;101001.19;5076435;28;20028;-77
2023/08/10 03:47:05;;;;;;;23.25;10.98;;;;;;;18.62;100.00;101037.53;5076196;28;20411;-77
2023/08/10 03:49:30;;;;;;;23.05;10.77;;;;;;;18.53;100.00;101040.53;5075991;28;20066;-76
2023/08/10 03:51:56;;;;;;;18.42;9.63;;;;;;;18.60;100.00;101046.25;5075990;28;20081;-77
2023/08/10 03:54:21;;;;;;;19.92;8.90;;;;;;;18.49;100.00;101058.75;5075707;28;20025;-76
2023/08/10 03:56:47;;;;;;;13.45;6.90;;;;;;;18.62;100.00;101047.84;5057969;28;20510;-78
2023/08/10 03:59:13;;;;;;;13.50;7.43;;;;;;;18.22;100.00;100944.03;5076042;28;20451;-76
2023/08/10 04:01:39;;;;;;;12.68;8.13;;;;;;;18.66;100.00;101033.91;5075326;28;20057;-74
2023/08/10 04:04:05;;;;;;;16.80;7.80;;;;;;;18.79;100.00;101001.56;5057183;28;20039;-75
2023/08/10 04:06:31;;;;;;;17.40;8.05;;;;;;;18.81;100.00;101007.47;5075096;28;20033;-75
2023/08/10 04:08:56;;;;;;;17.23;9.85;;;;;;;18.88;100.00;101015.75;5057230;28;20047;-74
2023/08/10 04:11:22;;;;;;;16.90;10.05;;;;;;;18.93;100.00;101032.69;5074757;28;20036;-75
2023/08/10 04:13:48;;;;;;;19.73;10.05;;;;;;;19.30;100.00;101067.09;5074916;28;20028;-75
2023/08/10 04:16:13;;;;;;;15.65;10.35;;;;;;;19.07;100.00;101051.84;5074486;28;20037;-74
2023/08/10 04:18:39;;;;;;;15.52;9.70;;;;;;;18.83;100.00;101053.78;5074067;28;20035;-74
2023/08/10 04:21:05;;;;;;;6.32;4.70;;;;;;;18.31;100.00;101010.56;5056768;28;20066;-75
2023/08/10 04:23:30;;;;;;;9.63;4.80;;;;;;;17.76;100.00;100960.59;5075590;28;20082;-76
2023/08/10 04:25:56;;;;;;;6.60;4.50;;;;;;;18.71;100.00;101087.81;5074926;28;20036;-75
2023/08/10 04:28:22;;;;;;;10.27;4.65;;;;;;;18.47;100.00;101079.41;5074838;28;20029;-76
2023/08/10 04:30:48;;;;;;;8.48;5.28;;;;;;;18.15;100.00;101021.53;5056346;28;20040;-77
2023/08/10 04:33:13;;;;;;;8.75;5.20;;;;;;;18.47;100.00;101065.69;5074693;28;20060;-78
2023/08/10 04:35:38;;;;;;;14.70;5.50;;;;;;;18.26;100.00;101010.78;5074223;28;20131;-77
2023/08/10 04:38:04;;;;;;;12.55;6.32;;;;;;;18.47;100.00;101053.66;5057397;28;20028;-77
2023/08/10 04:40:29;;;;;;;17.30;6.10;;;;;;;18.54;100.00;101062.78;5074457;28;20041;-78
2023/08/10 04:42:55;;;;;;;9.52;5.60;;;;;;;18.84;100.00;101100.09;5075069;28;20020;-78
2023/08/10 04:45:20;;;;;;;10.82;5.75;;;;;;;19.14;100.00;101090.16;5057070;28;20479;-77
2023/08/10 04:47:46;;;;;;;12.85;6.50;;;;;;;19.33;100.00;101082.47;5074305;28;20050;-78
2023/08/10 04:50:12;;;;;;;15.30;6.00;;;;;;;19.23;100.00;101039.94;5075200;28;20028;-77
2023/08/10 04:52:37;;;;;;;15.80;6.15;;;;;;;19.56;100.00;101061.59;5074939;28;20029;-76
2023/08/10 04:55:04;;;;;;;14.98;6.03;;;;;;;19.66;100.00;101047.34;5074636;28;20039;-77
2023/08/10 04:57:30;;;;;;;14.63;5.95;;;;;;;19.68;100.00;101022.28;5075068;28;20056;-77
2023/08/10 04:59:56;;;;;;;17.58;6.70;;;;;;;19.33;100.00;100956.91;5075449;28;20024;-77
2023/08/10 05:02:21;;;;;;;13.82;6.55;;;;;;;19.67;100.00;101003.38;5074480;28;20072;-79
2023/08/10 05:04:48;;;;;;;10.55;5.00;;;;;;;19.57;100.00;100972.97;5056710;28;20052;-78
2023/08/10 05:07:14;;;;;;;11.95;5.00;;;;;;;19.54;100.00;100921.50;5074502;28;20033;-77
2023/08/10 05:09:39;;;;;;;17.92;6.22;;;;;;;19.58;100.00;101003.84;5074259;28;20495;-76
2023/08/10 05:12:05;;;;;;;10.65;4.93;;;;;;;18.99;100.00;101011.75;5074066;28;20028;-76
2023/08/10 05:14:30;;;;;;;9.52;4.72;;;;;;;19.23;100.00;101060.56;5074126;28;20031;-76
2023/08/10 05:16:55;;;;;;;9.02;4.97;;;;;;;19.04;100.00;101074.28;5055629;28;20035;-77
2023/08/10 05:19:21;;;;;;;10.98;4.60;;;;;;;19.17;100.00;101091.78;5074207;28;20173;-77
2023/08/10 05:21:46;;;;;;;8.73;4.35;;;;;;;19.39;100.00;101095.09;5073702;28;20056;-78
2023/08/10 05:24:12;;;;;;;13.27;5.30;;;;;;;19.27;100.00;101098.19;5073651;28;20427;-77
2023/08/10 05:26:37;;;;;;;13.02;5.10;;;;;;;19.54;100.00;101086.63;5073885;28;20503;-76
2023/08/10 05:29:03;;;;;;;13.27;5.72;;;;;;;19.52;100.00;101066.06;5073641;28;20034;-76
2023/08/10 05:31:28;;;;;;;17.17;6.43;;;;;;;19.96;100.00;101078.56;5055448;28;20039;-76
2023/08/10 05:33:54;;;;;;;19.95;7.60;;;;;;;20.29;100.00;101064.84;5073487;28;20423;-77
2023/08/10 05:36:20;;;;;;;16.05;6.75;;;;;;;20.66;100.00;101025.00;5056538;28;20032;-76
2023/08/10 05:38:45;;;;;;;21.52;7.72;;;;;;;21.07;100.00;101009.91;5055965;28;20509;-76
2023/08/10 05:41:11;;;;;;;15.10;6.97;;;;;;;20.57;100.00;100858.38;5073745;28;20025;-76
2023/08/10 05:43:36;;;;;;;18.67;7.85;;;;;;;21.34;100.00;100905.72;5073209;28;20032;-76
2023/08/10 05:46:02;;;;;;;13.85;6.80;;;;;;;21.76;100.00;100842.81;5073641;28;20081;-76
2023/08/10 05:48:27;;;;;;;16.92;7.82;;;;;;;21.45;100.00;100791.22;5073513;28;20025;-76
2023/08/10 05:50:53;;;;;;;17.13;7.07;;;;;;;22.04;100.00;100759.13;5072896;28;20047;-75
2023/08/10 05:53:18;;;;;;;16.88;6.65;;;;;;;22.84;100.00;100740.97;5073087;28;20029;-77
2023/08/10 05:55:43;;;;;;;13.85;7.03;;;;;;;22.22;100.00;100655.13;5072946;28;20521;-76
2023/08/10 05:58:09;;;;;;;12.80;6.30;;;;;;;23.01;100.00;100689.59;5073197;28;20103;-76
2023/08/10 06:00:36;;;;;;;12.00;6.78;;;;;;;22.95;100.00;100668.44;5072487;28;20031;-75
2023/08/10 06:03:03;;;;;;;15.05;7.10;;;;;;;22.79;100.00;100680.78;5073308;28;20506;-76
2023/08/10 06:05:31;;;;;;;11.65;6.38;;;;;;;23.47;100.00;100658.75;5085558;28;20028;-73
2023/08/10 06:07:57;;;;;;;7.93;4.60;;;;;;;22.74;100.00;100664.69;5066490;28;20029;-76
2023/08/10 06:10:22;;;;;;;11.65;4.32;;;;;;;23.00;100.00;100609.25;5073128;28;20050;-75
2023/08/10 06:12:49;;;;;;;6.78;3.78;;;;;;;23.21;100.00;100638.94;5072804;28;20021;-75
2023/08/10 06:15:15;;;;;;;5.93;3.40;;;;;;;22.78;100.00;100658.38;5072597;28;20031;-76
2023/08/10 06:17:41;;;;;;;9.05;3.50;;;;;;;23.06;100.00;100639.97;5073114;28;20036;-76
2023/08/10 06:20:13;;;;;;;7.60;3.50;;;;;;;22.93;100.00;100639.16;5072753;28;20040;-76
2023/08/10 06:22:40;;;;;;;5.10;3.08;;;;;;;22.50;100.00;100596.31;5073093;28;20046;-76
2023/08/10 06:25:06;;;;;;;5.45;2.90;;;;;;;22.67;100.00;100637.50;5054960;28;20085;-75
2023/08/10 06:27:32;;;;;;;8.63;2.90;;;;;;;22.49;100.00;100573.91;5072431;28;20185;-76
2023/08/10 06:29:58;;;;;;;5.30;2.83;;;;;;;22.98;100.00;100632.72;5071916;28;20032;-76
2023/08/10 06:32:25;;;;;;;8.32;2.85;;;;;;;22.69;100.00;100574.25;5054808;28;20028;-75
2023/08/10 06:34:50;;;;;;;4.13;2.53;;;;;;;23.01;100.00;100587.59;5072327;28;20048;-76
2023/08/10 06:37:16;;;;;;;4.95;2.28;;;;;;;22.74;100.00;100571.34;5072162;28;20166;-75
2023/08/10 06:39:42;;;;;;;9.15;2.50;;;;;;;22.90;100.00;100629.00;5072422;28;20028;-76
2023/08/10 06:42:08;;;;;;;6.68;2.20;;;;;;;23.03;100.00;100632.41;5072615;28;20039;-75
2023/08/10 06:44:33;;;;;;;9.27;2.67;;;;;;;23.02;100.00;100643.72;5071551;28;20029;-75
2023/08/10 06:46:59;;;;;;;16.17;3.95;;;;;;;23.18;100.00;100572.50;5071812;28;20061;-75
2023/08/10 06:49:24;;;;;;;19.45;3.33;;;;;;;23.17;100.00;100638.31;5071956;28;20025;-76
2023/08/10 06:51:50;;;;;;;19.00;3.97;;;;;;;23.22;100.00;100625.84;5072325;28;20034;-75
2023/08/10 06:54:16;;;;;;;7.53;3.35;;;;;;;23.73;100.00;100617.94;5071933;28;20075;-75
2023/08/10 06:56:42;;;;;;;9.10;4.00;;;;;;;24.11;100.00;100612.56;5071910;28;20056;-72
2023/08/10 06:59:07;;;;;;;3.58;2.08;;;;;;;23.90;100.00;100610.56;5071666;28;20522;-75
2023/08/10 07:01:33;;;;;;;8.77;1.90;;;;;;;24.40;100.00;100611.22;5071829;28;20040;-75
2023/08/10 07:03:59;;;;;;;4.28;2.38;;;;;;;24.10;100.00;100627.34;5071782;28;20028;-75
2023/08/10 07:06:26;;;;;;;4.00;2.78;;;;;;;23.80;100.00;100622.56;5053579;28;20031;-75
2023/08/10 07:08:52;;;;;;;4.85;3.25;;;;;;;23.68;100.00;100581.06;5053513;28;20024;-74
2023/08/10 07:11:19;;;;;;;6.13;3.78;;;;;;;23.62;100.00;100504.44;5071140;28;20043;-75
2023/08/10 07:13:46;;;;;;;5.03;3.78;;;;;;;23.90;100.00;100618.38;5070701;28;20039;-75
2023/08/10 07:16:12;;;;;;;5.75;2.80;;;;;;;24.28;100.00;100631.19;5071155;28;20467;-74
2023/08/10 07:18:38;;;;;;;3.63;1.23;;;;;;;24.41;100.00;100657.06;5070954;28;20036;-75
2023/08/10 07:21:03;;;;;;;3.03;1.23;;;;;;;24.88;100.00;100665.59;5071553;28;20032;-74
2023/08/10 07:23:30;;;;;;;4.18;1.30;;;;;;;24.92;100.00;100672.22;5052967;28;20098;-73
2023/08/10 07:25:56;;;;;;;4.13;1.27;;;;;;;25.37;100.00;100662.66;5071047;28;20031;-75
2023/08/10 07:28:23;;;;;;;5.30;1.90;;;;;;;25.02;100.00;100667.16;5070890;28;20028;-75
2023/08/10 07:30:52;;;;;;;6.40;1.08;;;;;;;24.91;100.00;100691.41;5070989;28;20106;-74
2023/08/10 07:33:17;;;;;;;8.35;1.17;;;;;;;25.14;100.00;100688.78;5053054;28;20032;-74
2023/08/10 07:35:44;;;;;;;7.90;1.38;;;;;;;25.11;100.00;100681.25;5053284;28;20077;-74
2023/08/10 07:38:11;;;;;;;2.17;1.10;;;;;;;24.47;100.00;100686.06;5053878;28;20027;-74
2023/08/10 07:40:36;;;;;;;2.00;0.88;;;;;;;24.41;100.00;100623.28;5071012;28;20094;-75
2023/08/10 07:43:02;;;;;;;3.72;1.10;;;;;;;24.80;100.00;100680.97;5070781;28;20025;-76
2023/08/10 07:45:27;;;;;;;5.10;1.00;;;;;;;25.09;100.00;100677.94;5058739;28;20043;-75
2023/08/10 07:47:53;;;;;;;1.05;0.95;;;;;;;25.32;100.00;100672.59;5051787;28;20075;-76
2023/08/10 07:50:18;;;;;;;2.67;1.10;;;;;;;24.85;100.00;100665.84;5034074;28;20029;-78
2023/08/10 07:52:44;;;;;;;2.08;1.02;;;;;;;25.23;100.00;100690.72;5034502;28;20033;-75
2023/08/10 07:55:12;;;;;;;1.30;1.00;;;;;;;25.10;100.00;100671.78;5056774;28;20064;-76
2023/08/10 07:57:38;;;;;;;2.60;1.17;;;;;;;25.17;100.00;100718.06;5049903;28;20022;-75
2023/08/10 08:00:05;;;;;;;1.25;0.88;;;;;;;25.00;100.00;100652.63;5066610;28;20096;-76
2023/08/10 08:02:31;;;;;;;1.05;0.90;;;;;;;25.30;100.00;100697.91;5033272;28;20037;-76
2023/08/10 08:04:57;;;;;;;6.15;3.38;;;;;;;25.42;100.00;100696.16;5034043;28;20033;-76
2023/08/10 08:07:25;;;;;;;1.02;0.93;;;;;;;25.25;100.00;100697.47;5051812;28;20033;-76
2023/08/10 08:09:50;;;;;;;1.80;0.80;;;;;;;25.16;100.00;100679.94;5051737;28;20090;-76
2023/08/10 08:12:16;;;;;;;1.17;0.70;;;;;;;25.15;100.00;100730.34;5051477;28;20032;-76
2023/08/10 08:14:43;;;;;;;1.48;0.70;;;;;;;25.48;100.00;100672.25;5033978;28;20087;-76
2023/08/10 08:17:08;;;;;;;1.67;0.80;;;;;;;25.73;100.00;100659.75;5051646;28;20040;-76
2023/08/10 08:19:36;;;;;;;2.40;0.70;;;;;;;26.01;100.00;100731.34;5050936;28;20055;-74
2023/08/10 08:22:04;;;;;;;1.58;0.73;;;;;;;26.79;100.00;100720.66;5051344;28;20101;-75
2023/08/10 08:24:30;;;;;;;1.35;0.82;;;;;;;25.90;100.00;100728.78;5052901;28;20029;-75
2023/08/10 08:26:56;;;;;;;1.95;0.90;;;;;;;25.87;100.00;100704.75;5036715;28;20124;-75
2023/08/10 08:29:22;;;;;;;1.52;0.57;;;;;;;26.05;100.00;100719.75;5036655;28;20423;-76
2023/08/10 08:31:48;;;;;;;1.35;0.70;;;;;;;26.49;100.00;100705.72;5037034;28;20021;-75
2023/08/10 08:34:14;;;;;;;3.30;0.70;;;;;;;26.18;100.00;100662.25;5054446;28;20050;-74
2023/08/10 08:36:39;;;;;;;5.05;0.90;;;;;;;25.82;100.00;100675.63;5037167;28;20033;-75
2023/08/10 08:39:05;;;;;;;3.83;0.80;;;;;;;26.64;100.00;100667.94;5054941;28;20028;-75
2023/08/10 08:41:37;;;;;;;3.10;0.77;;;;;;;25.87;100.00;100670.88;5036884;28;20040;-75
2023/08/10 08:44:05;;;;;;;4.07;0.70;;;;;;;27.05;100.00;100706.25;5050572;28;20124;-76
2023/08/10 08:46:32;;;;;;;3.08;1.00;;;;;;;26.53;100.00;100720.19;5053906;28;20041;-76
2023/08/10 08:48:59;;;;;;;2.65;1.00;;;;;;;27.14;100.00;100643.59;5037241;28;20086;-76
2023/08/10 08:51:25;;;;;;;1.65;0.85;;;;;;;27.31;100.00;100712.69;5054650;28;20064;-78
2023/08/10 08:53:51;;;;;;;3.80;0.85;;;;;;;27.63;100.00;100709.94;5037093;28;20033;-78
2023/08/10 08:56:17;;;;;;;1.58;0.90;;;;;;;27.19;100.00;100656.28;5054912;28;20029;-76
2023/08/10 08:58:42;;;;;;;1.83;0.98;;;;;;;27.78;100.00;100708.59;5055074;28;20104;-76
2023/08/10 09:01:08;;;;;;;1.80;0.73;;;;;;;26.91;100.00;100676.09;5053984;28;20103;-76
2023/08/10 09:03:34;;;;;;;1.88;0.75;;;;;;;27.36;100.00;100711.38;5054644;28;20048;-76
2023/08/10 09:06:01;;;;;;;3.85;0.90;;;;;;;27.43;100.00;100639.31;5054914;28;20032;-76
2023/08/10 09:08:27;;;;;;;3.75;0.93;;;;;;;27.67;100.00;100686.03;5036584;28;20036;-76
2023/08/10 09:10:53;;;;;;;3.40;0.80;;;;;;;27.65;100.00;100642.66;5054699;28;20060;-78
2023/08/10 09:13:23;;;;;;;4.72;1.17;;;;;;;27.62;100.00;100700.44;5054306;28;20033;-77
2023/08/10 09:16:13;;;;;;;3.13;1.30;;;;;;;28.46;100.00;100610.88;5054402;28;20029;-76
2023/08/10 09:18:42;;;;;;;1.77;1.00;;;;;;;27.60;100.00;100589.97;5054456;28;20032;-75
2023/08/10 09:21:14;;;;;;;2.33;1.20;;;;;;;27.99;100.00;100706.75;5036990;28;20475;-75
2023/08/10 09:23:41;;;;;;;1.15;0.88;;;;;;;27.82;100.00;100634.97;5071076;28;20029;-77
2023/08/10 09:26:10;;;;;;;2.88;1.00;;;;;;;28.72;100.00;100594.41;5065345;28;20037;-75
2023/08/10 09:28:39;;;;;;;2.90;1.27;;;;;;;28.77;100.00;100589.56;5054111;28;20025;-78
2023/08/10 09:31:11;;;;;;;3.17;1.10;;;;;;;29.05;100.00;100646.25;5054053;28;20539;-77
2023/08/10 09:33:38;;;;;;;2.42;1.48;;;;;;;29.82;100.00;100630.94;5054299;28;20025;-78
2023/08/10 09:36:05;;;;;;;3.88;1.00;;;;;;;29.56;100.00;100577.56;5053047;28;20423;-77
2023/08/10 09:38:31;;;;;;;2.83;0.98;;;;;;;30.05;100.00;100614.75;5054082;28;20025;-77
2023/08/10 09:41:15;;;;;;;1.77;1.10;;;;;;;29.90;100.00;100610.03;5054251;28;20110;-77
2023/08/10 09:43:43;;;;;;;4.03;1.15;;;;;;;29.93;100.00;100595.78;5053798;28;20032;-76
2023/08/10 09:46:11;;;;;;;3.25;1.35;;;;;;;29.35;100.00;100578.81;5053699;28;20028;-77
2023/08/10 09:48:40;;;;;;;2.22;1.20;;;;;;;29.58;100.00;100543.31;5054560;28;20032;-76
2023/08/10 09:51:09;;;;;;;4.35;1.10;;;;;;;29.70;100.00;100597.19;5053942;28;20029;-76
2023/08/10 09:53:35;;;;;;;3.70;1.17;;;;;;;28.64;100.00;100583.00;5053343;28;20086;-79
2023/08/10 09:56:01;;;;;;;1.88;1.02;;;;;;;28.53;100.00;100564.81;5053712;28;20483;-76
2023/08/10 09:58:27;;;;;;;2.67;0.90;;;;;;;30.29;100.00;100596.56;5053015;28;20074;-79
2023/08/10 10:00:53;;;;;;;1.40;0.88;;;;;;;29.80;100.00;100511.41;5053240;28;20049;-75
2023/08/10 10:03:29;;;;;;;1.30;1.10;;;;;;;30.71;100.00;100556.28;5052702;28;20047;-77
2023/08/10 10:05:55;;;;;;;2.45;0.95;;;;;;;30.16;100.00;100562.84;5053172;28;20029;-79
2023/08/10 10:08:22;;;;;;;2.45;1.17;;;;;;;30.50;100.00;100524.34;5053205;28;20035;-74
2023/08/10 10:10:48;;;;;;;2.38;1.10;;;;;;;29.29;100.00;100540.09;5053066;28;20080;-76
2023/08/10 10:13:15;;;;;;;2.28;1.00;;;;;;;29.28;100.00;100603.97;5035968;28;20530;-77
2023/08/10 10:15:42;;;;;;;0.98;0.85;;;;;;;29.24;100.00;100600.81;5035678;28;20025;-76
2023/08/10 10:18:09;;;;;;;2.15;1.02;;;;;;;29.72;100.00;100576.91;5053252;28;20028;-77
2023/08/10 10:20:39;;;;;;;3.67;0.93;;;;;;;30.42;100.00;100487.56;5035568;28;20397;-77
2023/08/10 10:23:04;;;;;;;1.85;1.25;;;;;;;30.37;100.00;100546.72;5035172;28;20029;-76
2023/08/10 10:25:30;;;;;;;1.27;1.10;;;;;;;29.82;100.00;100491.09;5035073;28;20083;-77
2023/08/10 10:27:56;;;;;;;2.08;1.10;;;;;;;30.27;100.00;100517.09;5052575;28;20043;-76
2023/08/10 10:30:23;;;;;;;1.63;1.23;;;;;;;29.82;100.00;100533.06;5052608;28;20545;-72
2023/08/10 10:32:51;;;;;;;2.13;1.20;;;;;;;29.61;100.00;100543.84;5052764;28;20029;-76
2023/08/10 10:35:24;;;;;;;2.30;1.20;;;;;;;30.70;100.00;100506.53;5052961;28;20120;-76
2023/08/10 10:37:57;;;;;;;1.55;1.25;;;;;;;30.96;100.00;100512.53;5052925;28;20110;-74
2023/08/10 10:40:23;;;;;;;1.63;1.02;;;;;;;29.09;100.00;100492.22;5053444;28;20029;-76
2023/08/10 10:43:00;;;;;;;1.10;1.00;;;;;;;29.88;100.00;100541.16;5052797;28;20216;-75
2023/08/10 10:45:26;;;;;;;1.73;1.20;;;;;;;28.72;100.00;100508.00;5052306;28;20032;-76
2023/08/10 10:47:52;;;;;;;1.85;1.05;;;;;;;29.17;100.00;100453.03;5052403;28;20033;-77
2023/08/10 10:50:18;;;;;;;1.60;1.05;;;;;;;29.29;100.00;100551.41;5052271;28;20116;-76
2023/08/10 10:53:13;;;;;;;2.40;1.05;;;;;;;29.36;100.00;100535.88;5052243;28;20082;-76
2023/08/10 10:55:44;;;;;;;1.42;0.93;;;;;;;29.15;100.00;100472.47;5049785;28;20045;-78
2023/08/10 10:58:12;;;;;;;1.08;0.90;;;;;;;29.55;100.00;100528.72;5052248;28;20047;-76
2023/08/10 11:00:38;;;;;;;1.98;1.20;;;;;;;29.08;100.00;100562.13;5051927;28;20051;-78
2023/08/10 11:03:05;;;;;;;2.55;1.25;;;;;;;28.06;100.00;100536.03;5051565;28;20047;-75
2023/08/10 11:05:30;;;;;;;1.95;1.20;;;;;;;29.15;100.00;100575.50;5052225;28;20063;-76
2023/08/10 11:08:03;;;;;;;2.13;1.10;;;;;;;28.39;100.00;100579.19;5033986;28;20056;-75
2023/08/10 11:10:29;;;;;;;1.90;1.00;;;;;;;28.30;100.00;100517.25;5034563;28;20029;-76
2023/08/10 11:12:55;;;;;;;1.20;1.10;;;;;;;28.99;100.00;100515.84;5051662;28;20479;-75